sensor_id;sensor_type;location;lat;lon;timestamp;temperature;humidity
55331;DHT22;58851;42.984;20.336;2022-08-21T00:02:03;487.20;2380.80
55331;DHT22;58851;42.984;20.336;2022-08-21T00:04:30;487.20;2380.80
55331;DHT22;58851;42.984;20.336;2022-08-21T00:06:56;487.10;2380.80
55331;DHT22;58851;42.984;20.336;2022-08-21T00:09:22;487.10;2380.80
55331;DHT22;58851;42.984;20.336;2022-08-21T00:11:48;487.00;2380.80
55331;DHT22;58851;42.984;20.336;2022-08-21T00:14:14;487.00;2380.80
55331;DHT22;58851;42.984;20.336;2022-08-21T00:16:41;486.90;2380.80
55331;DHT22;58851;42.984;20.336;2022-08-21T00:19:07;487.00;2380.80
55331;DHT22;58851;42.984;20.336;2022-08-21T00:21:34;487.00;2380.80
55331;DHT22;58851;42.984;20.336;2022-08-21T00:24:00;487.10;2380.80
55331;DHT22;58851;42.984;20.336;2022-08-21T00:26:26;487.00;2380.80
55331;DHT22;58851;42.984;20.336;2022-08-21T00:28:52;487.00;2380.80
55331;DHT22;58851;42.984;20.336;2022-08-21T00:31:19;486.90;2380.80
55331;DHT22;58851;42.984;20.336;2022-08-21T00:33:45;486.90;2380.80
55331;DHT22;58851;42.984;20.336;2022-08-21T00:36:11;487.00;2380.80
55331;DHT22;58851;42.984;20.336;2022-08-21T00:38:37;486.90;2380.80
55331;DHT22;58851;42.984;20.336;2022-08-21T00:41:07;486.90;2380.80
55331;DHT22;58851;42.984;20.336;2022-08-21T00:43:35;486.90;2380.80
55331;DHT22;58851;42.984;20.336;2022-08-21T00:46:02;486.80;2380.80
55331;DHT22;58851;42.984;20.336;2022-08-21T00:48:28;486.80;2380.80
55331;DHT22;58851;42.984;20.336;2022-08-21T00:51:13;486.70;2380.80
55331;DHT22;58851;42.984;20.336;2022-08-21T00:53:42;486.60;2380.80
55331;DHT22;58851;42.984;20.336;2022-08-21T00:56:11;486.70;2380.80
55331;DHT22;58851;42.984;20.336;2022-08-21T00:58:39;486.70;2380.80
55331;DHT22;58851;42.984;20.336;2022-08-21T01:01:08;486.80;2380.80
55331;DHT22;58851;42.984;20.336;2022-08-21T01:03:34;486.80;2380.80
55331;DHT22;58851;42.984;20.336;2022-08-21T01:06:01;486.80;2380.80
55331;DHT22;58851;42.984;20.336;2022-08-21T01:08:27;486.80;2380.80
55331;DHT22;58851;42.984;20.336;2022-08-21T01:10:54;486.80;2380.80
55331;DHT22;58851;42.984;20.336;2022-08-21T01:13:22;486.90;2380.80
55331;DHT22;58851;42.984;20.336;2022-08-21T01:15:51;486.80;2380.80
55331;DHT22;58851;42.984;20.336;2022-08-21T01:18:19;486.90;2380.80
55331;DHT22;58851;42.984;20.336;2022-08-21T01:23:33;486.80;2380.80
55331;DHT22;58851;42.984;20.336;2022-08-21T01:25:59;486.70;2380.80
55331;DHT22;58851;42.984;20.336;2022-08-21T01:28:24;486.70;2380.80
55331;DHT22;58851;42.984;20.336;2022-08-21T01:30:52;486.70;2380.80
55331;DHT22;58851;42.984;20.336;2022-08-21T01:33:22;486.60;2380.80
55331;DHT22;58851;42.984;20.336;2022-08-21T01:35:49;486.70;2380.80
55331;DHT22;58851;42.984;20.336;2022-08-21T01:38:15;486.70;2380.80
55331;DHT22;58851;42.984;20.336;2022-08-21T01:40:41;486.80;2380.80
55331;DHT22;58851;42.984;20.336;2022-08-21T01:43:07;486.80;2380.80
55331;DHT22;58851;42.984;20.336;2022-08-21T01:45:33;486.80;2380.80
55331;DHT22;58851;42.984;20.336;2022-08-21T01:47:59;486.90;2380.80
55331;DHT22;58851;42.984;20.336;2022-08-21T01:50:25;486.80;2380.80
55331;DHT22;58851;42.984;20.336;2022-08-21T01:52:50;486.90;2380.80
55331;DHT22;58851;42.984;20.336;2022-08-21T01:55:18;486.90;2380.80
55331;DHT22;58851;42.984;20.336;2022-08-21T01:57:45;486.90;2380.80
55331;DHT22;58851;42.984;20.336;2022-08-21T02:00:13;486.90;2380.80
55331;DHT22;58851;42.984;20.336;2022-08-21T02:02:40;486.90;2380.80
55331;DHT22;58851;42.984;20.336;2022-08-21T02:05:07;486.80;2380.80
55331;DHT22;58851;42.984;20.336;2022-08-21T02:07:39;486.60;2380.80
55331;DHT22;58851;42.984;20.336;2022-08-21T02:10:08;486.60;2380.80
55331;DHT22;58851;42.984;20.336;2022-08-21T02:12:34;486.60;2380.80
55331;DHT22;58851;42.984;20.336;2022-08-21T02:15:01;486.60;2380.80
55331;DHT22;58851;42.984;20.336;2022-08-21T02:17:27;486.70;2380.80
55331;DHT22;58851;42.984;20.336;2022-08-21T02:20:01;486.60;2380.80
55331;DHT22;58851;42.984;20.336;2022-08-21T02:22:27;486.60;2380.80
55331;DHT22;58851;42.984;20.336;2022-08-21T02:24:53;486.60;2380.80
55331;DHT22;58851;42.984;20.336;2022-08-21T02:27:19;486.70;2380.80
55331;DHT22;58851;42.984;20.336;2022-08-21T02:29:45;486.70;2380.80
55331;DHT22;58851;42.984;20.336;2022-08-21T02:32:10;486.60;2380.80
55331;DHT22;58851;42.984;20.336;2022-08-21T02:34:36;486.70;2380.80
55331;DHT22;58851;42.984;20.336;2022-08-21T02:37:02;486.70;2380.80
55331;DHT22;58851;42.984;20.336;2022-08-21T02:39:28;486.60;2380.80
55331;DHT22;58851;42.984;20.336;2022-08-21T02:41:53;486.60;2380.80
55331;DHT22;58851;42.984;20.336;2022-08-21T02:44:19;486.60;2380.80
55331;DHT22;58851;42.984;20.336;2022-08-21T02:46:45;486.60;2380.80
55331;DHT22;58851;42.984;20.336;2022-08-21T02:49:11;486.60;2380.80
55331;DHT22;58851;42.984;20.336;2022-08-21T02:51:36;486.70;2380.80
55331;DHT22;58851;42.984;20.336;2022-08-21T02:54:02;486.70;2380.80
55331;DHT22;58851;42.984;20.336;2022-08-21T02:56:28;486.70;2380.80
55331;DHT22;58851;42.984;20.336;2022-08-21T02:58:54;486.80;2252.80
55331;DHT22;58851;42.984;20.336;2022-08-21T03:01:20;486.80;2073.60
55331;DHT22;58851;42.984;20.336;2022-08-21T03:03:47;486.80;2380.80
55331;DHT22;58851;42.984;20.336;2022-08-21T03:06:17;486.80;2380.80
55331;DHT22;58851;42.984;20.336;2022-08-21T03:08:44;486.90;2380.80
55331;DHT22;58851;42.984;20.336;2022-08-21T03:11:11;486.90;2380.80
55331;DHT22;58851;42.984;20.336;2022-08-21T03:13:38;486.80;2201.60
55331;DHT22;58851;42.984;20.336;2022-08-21T03:16:04;486.80;2380.80
55331;DHT22;58851;42.984;20.336;2022-08-21T03:18:31;486.80;2380.80
55331;DHT22;58851;42.984;20.336;2022-08-21T03:20:57;486.80;2380.80
55331;DHT22;58851;42.984;20.336;2022-08-21T03:23:23;486.70;2380.80
55331;DHT22;58851;42.984;20.336;2022-08-21T03:25:49;486.70;2380.80
55331;DHT22;58851;42.984;20.336;2022-08-21T03:28:19;486.80;2380.80
55331;DHT22;58851;42.984;20.336;2022-08-21T03:30:48;486.90;2150.40
55331;DHT22;58851;42.984;20.336;2022-08-21T03:33:16;486.90;2073.60
55331;DHT22;58851;42.984;20.336;2022-08-21T03:35:48;486.90;2252.80
55331;DHT22;58851;42.984;20.336;2022-08-21T03:38:16;486.90;2380.80
55331;DHT22;58851;42.984;20.336;2022-08-21T03:40:43;486.90;2380.80
55331;DHT22;58851;42.984;20.336;2022-08-21T03:43:09;487.10;2380.80
55331;DHT22;58851;42.984;20.336;2022-08-21T03:45:35;487.00;2380.80
55331;DHT22;58851;42.984;20.336;2022-08-21T03:48:03;487.10;2380.80
55331;DHT22;58851;42.984;20.336;2022-08-21T03:50:34;486.90;2380.80
55331;DHT22;58851;42.984;20.336;2022-08-21T03:53:00;486.90;2073.60
55331;DHT22;58851;42.984;20.336;2022-08-21T03:55:26;486.90;2124.80
55331;DHT22;58851;42.984;20.336;2022-08-21T03:57:52;486.80;2380.80
55331;DHT22;58851;42.984;20.336;2022-08-21T04:00:19;486.80;2380.80
55331;DHT22;58851;42.984;20.336;2022-08-21T04:02:46;486.80;2380.80
55331;DHT22;58851;42.984;20.336;2022-08-21T04:05:14;486.80;2380.80
55331;DHT22;58851;42.984;20.336;2022-08-21T04:08:03;486.90;2380.80
55331;DHT22;58851;42.984;20.336;2022-08-21T04:10:31;486.90;2099.20
55331;DHT22;58851;42.984;20.336;2022-08-21T04:12:58;486.90;2380.80
55331;DHT22;58851;42.984;20.336;2022-08-21T04:15:25;486.80;2380.80
55331;DHT22;58851;42.984;20.336;2022-08-21T04:17:51;486.80;2278.40
55331;DHT22;58851;42.984;20.336;2022-08-21T04:20:18;486.80;2380.80
55331;DHT22;58851;42.984;20.336;2022-08-21T04:22:44;486.90;2380.80
55331;DHT22;58851;42.984;20.336;2022-08-21T04:25:12;486.80;2380.80
55331;DHT22;58851;42.984;20.336;2022-08-21T04:27:38;486.80;2380.80
55331;DHT22;58851;42.984;20.336;2022-08-21T04:30:06;486.90;2380.80
55331;DHT22;58851;42.984;20.336;2022-08-21T04:32:32;486.90;2380.80
55331;DHT22;58851;42.984;20.336;2022-08-21T04:35:00;487.00;2380.80
55331;DHT22;58851;42.984;20.336;2022-08-21T04:37:26;487.10;2380.80
55331;DHT22;58851;42.984;20.336;2022-08-21T04:39:52;487.10;2380.80
55331;DHT22;58851;42.984;20.336;2022-08-21T04:42:18;487.20;2380.80
55331;DHT22;58851;42.984;20.336;2022-08-21T04:44:44;487.30;2380.80
55331;DHT22;58851;42.984;20.336;2022-08-21T04:47:10;487.20;2380.80
55331;DHT22;58851;42.984;20.336;2022-08-21T04:49:35;487.20;2380.80
55331;DHT22;58851;42.984;20.336;2022-08-21T04:52:02;487.20;2380.80
55331;DHT22;58851;42.984;20.336;2022-08-21T04:54:28;487.20;2380.80
55331;DHT22;58851;42.984;20.336;2022-08-21T04:56:58;487.30;2380.80
55331;DHT22;58851;42.984;20.336;2022-08-21T04:59:30;512.00;2380.80
55331;DHT22;58851;42.984;20.336;2022-08-21T05:01:57;512.10;2380.80
55331;DHT22;58851;42.984;20.336;2022-08-21T05:04:26;512.10;2380.80
55331;DHT22;58851;42.984;20.336;2022-08-21T05:06:57;512.10;2380.80
55331;DHT22;58851;42.984;20.336;2022-08-21T05:09:25;512.10;2380.80
55331;DHT22;58851;42.984;20.336;2022-08-21T05:11:51;512.10;2380.80
55331;DHT22;58851;42.984;20.336;2022-08-21T05:14:17;512.20;2380.80
55331;DHT22;58851;42.984;20.336;2022-08-21T05:16:45;512.00;2380.80
55331;DHT22;58851;42.984;20.336;2022-08-21T05:19:12;512.20;2380.80
55331;DHT22;58851;42.984;20.336;2022-08-21T05:21:41;512.10;2380.80
55331;DHT22;58851;42.984;20.336;2022-08-21T05:24:07;512.20;2380.80
55331;DHT22;58851;42.984;20.336;2022-08-21T05:26:33;512.40;2380.80
55331;DHT22;58851;42.984;20.336;2022-08-21T05:28:59;512.50;2380.80
55331;DHT22;58851;42.984;20.336;2022-08-21T05:31:25;512.50;2380.80
55331;DHT22;58851;42.984;20.336;2022-08-21T05:33:51;512.60;2380.80
55331;DHT22;58851;42.984;20.336;2022-08-21T05:36:17;512.70;2380.80
55331;DHT22;58851;42.984;20.336;2022-08-21T05:38:43;512.90;2380.80
55331;DHT22;58851;42.984;20.336;2022-08-21T05:41:09;537.60;2406.40
55331;DHT22;58851;42.984;20.336;2022-08-21T05:43:36;537.60;2406.40
55331;DHT22;58851;42.984;20.336;2022-08-21T05:46:06;537.70;2406.40
55331;DHT22;58851;42.984;20.336;2022-08-21T05:48:33;537.90;2406.40
55331;DHT22;58851;42.984;20.336;2022-08-21T05:51:09;538.00;2406.40
55331;DHT22;58851;42.984;20.336;2022-08-21T05:53:36;538.10;2406.40
55331;DHT22;58851;42.984;20.336;2022-08-21T05:56:03;538.20;2406.40
55331;DHT22;58851;42.984;20.336;2022-08-21T05:58:31;538.40;2406.40
55331;DHT22;58851;42.984;20.336;2022-08-21T06:00:58;538.40;2406.40
55331;DHT22;58851;42.984;20.336;2022-08-21T06:03:27;563.20;2432.00
55331;DHT22;58851;42.984;20.336;2022-08-21T06:05:54;563.20;2432.00
55331;DHT22;58851;42.984;20.336;2022-08-21T06:08:21;563.20;2432.00
55331;DHT22;58851;42.984;20.336;2022-08-21T06:10:49;563.20;2432.00
55331;DHT22;58851;42.984;20.336;2022-08-21T06:13:17;563.20;2432.00
55331;DHT22;58851;42.984;20.336;2022-08-21T06:15:43;563.20;2432.00
55331;DHT22;58851;42.984;20.336;2022-08-21T06:18:09;563.20;2432.00
55331;DHT22;58851;42.984;20.336;2022-08-21T06:20:36;563.30;2432.00
55331;DHT22;58851;42.984;20.336;2022-08-21T06:23:02;563.40;2432.00
55331;DHT22;58851;42.984;20.336;2022-08-21T06:25:28;563.50;2432.00
55331;DHT22;58851;42.984;20.336;2022-08-21T06:28:01;563.60;2432.00
55331;DHT22;58851;42.984;20.336;2022-08-21T06:30:27;563.60;2432.00
55331;DHT22;58851;42.984;20.336;2022-08-21T06:32:53;563.70;2432.00
55331;DHT22;58851;42.984;20.336;2022-08-21T06:35:18;563.70;2432.00
55331;DHT22;58851;42.984;20.336;2022-08-21T06:37:44;563.80;2432.00
55331;DHT22;58851;42.984;20.336;2022-08-21T06:40:11;563.80;2432.00
55331;DHT22;58851;42.984;20.336;2022-08-21T06:42:37;563.90;2432.00
55331;DHT22;58851;42.984;20.336;2022-08-21T06:45:04;563.90;2432.00
55331;DHT22;58851;42.984;20.336;2022-08-21T06:47:30;564.10;2432.00
55331;DHT22;58851;42.984;20.336;2022-08-21T06:49:55;588.80;2432.00
55331;DHT22;58851;42.984;20.336;2022-08-21T06:52:21;588.80;2432.00
55331;DHT22;58851;42.984;20.336;2022-08-21T06:54:47;564.00;2432.00
55331;DHT22;58851;42.984;20.336;2022-08-21T06:57:13;564.10;2432.00
55331;DHT22;58851;42.984;20.336;2022-08-21T06:59:39;588.80;2432.00
55331;DHT22;58851;42.984;20.336;2022-08-21T07:02:04;564.00;2432.00
55331;DHT22;58851;42.984;20.336;2022-08-21T07:04:30;564.00;2432.00
55331;DHT22;58851;42.984;20.336;2022-08-21T07:06:56;564.00;2432.00
55331;DHT22;58851;42.984;20.336;2022-08-21T07:09:22;564.00;2432.00
55331;DHT22;58851;42.984;20.336;2022-08-21T07:11:50;588.80;2432.00
55331;DHT22;58851;42.984;20.336;2022-08-21T07:14:17;564.00;2432.00
55331;DHT22;58851;42.984;20.336;2022-08-21T07:16:43;564.00;2432.00
55331;DHT22;58851;42.984;20.336;2022-08-21T07:19:09;564.00;2432.00
55331;DHT22;58851;42.984;20.336;2022-08-21T07:21:35;563.90;2432.00
55331;DHT22;58851;42.984;20.336;2022-08-21T07:24:00;564.00;2432.00
55331;DHT22;58851;42.984;20.336;2022-08-21T07:26:26;588.80;2432.00
55331;DHT22;58851;42.984;20.336;2022-08-21T07:28:52;588.90;2432.00
55331;DHT22;58851;42.984;20.336;2022-08-21T07:31:21;588.90;2432.00
55331;DHT22;58851;42.984;20.336;2022-08-21T07:33:47;588.80;2432.00
55331;DHT22;58851;42.984;20.336;2022-08-21T07:36:13;588.90;2432.00
55331;DHT22;58851;42.984;20.336;2022-08-21T07:38:39;588.90;2432.00
55331;DHT22;58851;42.984;20.336;2022-08-21T07:41:17;589.00;2432.00
55331;DHT22;58851;42.984;20.336;2022-08-21T07:43:44;589.00;2432.00
55331;DHT22;58851;42.984;20.336;2022-08-21T07:46:10;589.00;2432.00
55331;DHT22;58851;42.984;20.336;2022-08-21T07:48:36;589.10;2432.00
55331;DHT22;58851;42.984;20.336;2022-08-21T07:51:08;589.20;2432.00
55331;DHT22;58851;42.984;20.336;2022-08-21T07:53:35;589.20;2432.00
55331;DHT22;58851;42.984;20.336;2022-08-21T07:56:02;589.20;2432.00
55331;DHT22;58851;42.984;20.336;2022-08-21T07:58:28;589.20;2432.00
55331;DHT22;58851;42.984;20.336;2022-08-21T08:00:54;589.20;2432.00
55331;DHT22;58851;42.984;20.336;2022-08-21T08:03:20;589.30;2432.00
55331;DHT22;58851;42.984;20.336;2022-08-21T08:05:46;589.40;2432.00
55331;DHT22;58851;42.984;20.336;2022-08-21T08:08:12;589.60;2432.00
55331;DHT22;58851;42.984;20.336;2022-08-21T08:10:38;589.60;2432.00
55331;DHT22;58851;42.984;20.336;2022-08-21T08:13:05;589.40;2432.00
55331;DHT22;58851;42.984;20.336;2022-08-21T08:15:30;589.50;2432.00
55331;DHT22;58851;42.984;20.336;2022-08-21T08:17:57;589.20;2432.00
55331;DHT22;58851;42.984;20.336;2022-08-21T08:20:24;589.50;2432.00
55331;DHT22;58851;42.984;20.336;2022-08-21T08:22:53;589.60;2432.00
55331;DHT22;58851;42.984;20.336;2022-08-21T08:25:20;589.60;2432.00
55331;DHT22;58851;42.984;20.336;2022-08-21T08:27:46;614.40;2432.00
55331;DHT22;58851;42.984;20.336;2022-08-21T08:30:14;614.40;2432.00
55331;DHT22;58851;42.984;20.336;2022-08-21T08:32:41;614.50;2432.00
55331;DHT22;58851;42.984;20.336;2022-08-21T08:35:08;614.50;2432.00
55331;DHT22;58851;42.984;20.336;2022-08-21T08:37:34;614.60;2432.00
55331;DHT22;58851;42.984;20.336;2022-08-21T08:40:04;614.60;2432.00
55331;DHT22;58851;42.984;20.336;2022-08-21T08:42:34;614.60;2432.00
55331;DHT22;58851;42.984;20.336;2022-08-21T08:45:11;614.60;2432.00
55331;DHT22;58851;42.984;20.336;2022-08-21T08:47:46;614.60;2432.00
55331;DHT22;58851;42.984;20.336;2022-08-21T08:50:33;614.80;2432.00
55331;DHT22;58851;42.984;20.336;2022-08-21T08:53:07;615.20;2432.00
55331;DHT22;58851;42.984;20.336;2022-08-21T08:55:41;640.20;2432.00
55331;DHT22;58851;42.984;20.336;2022-08-21T08:58:12;640.30;2432.00
55331;DHT22;58851;42.984;20.336;2022-08-21T09:00:41;640.50;2432.00
55331;DHT22;58851;42.984;20.336;2022-08-21T09:03:06;640.60;2432.00
55331;DHT22;58851;42.984;20.336;2022-08-21T09:05:53;640.50;2432.00
55331;DHT22;58851;42.984;20.336;2022-08-21T09:27:33;614.50;2432.00
55331;DHT22;58851;42.984;20.336;2022-08-21T09:30:00;614.60;2432.00
55331;DHT22;58851;42.984;20.336;2022-08-21T09:32:29;614.70;2432.00
55331;DHT22;58851;42.984;20.336;2022-08-21T09:35:00;614.80;2432.00
55331;DHT22;58851;42.984;20.336;2022-08-21T09:37:29;614.70;2432.00
55331;DHT22;58851;42.984;20.336;2022-08-21T09:39:56;614.60;2432.00
55331;DHT22;58851;42.984;20.336;2022-08-21T09:42:29;614.60;2432.00
55331;DHT22;58851;42.984;20.336;2022-08-21T09:45:12;614.60;2432.00
55331;DHT22;58851;42.984;20.336;2022-08-21T09:47:40;614.60;2432.00
55331;DHT22;58851;42.984;20.336;2022-08-21T09:50:20;614.90;2432.00
55331;DHT22;58851;42.984;20.336;2022-08-21T09:52:49;640.00;2432.00
55331;DHT22;58851;42.984;20.336;2022-08-21T09:55:47;640.30;2432.00
55331;DHT22;58851;42.984;20.336;2022-08-21T09:58:32;640.60;2380.80
55331;DHT22;58851;42.984;20.336;2022-08-21T10:01:00;640.70;2380.80
55331;DHT22;58851;42.984;20.336;2022-08-21T10:03:27;665.60;2304.00
55331;DHT22;58851;42.984;20.336;2022-08-21T10:06:02;665.80;2355.20
55331;DHT22;58851;42.984;20.336;2022-08-21T10:08:33;666.10;2406.40
55331;DHT22;58851;42.984;20.336;2022-08-21T10:11:13;666.00;2380.80
55331;DHT22;58851;42.984;20.336;2022-08-21T10:16:24;665.80;2124.80
55331;DHT22;58851;42.984;20.336;2022-08-21T10:24:13;640.50;2150.40
55331;DHT22;58851;42.984;20.336;2022-08-21T10:34:57;614.80;2432.00
55331;DHT22;58851;42.984;20.336;2022-08-21T10:40:12;614.90;2304.00
55331;DHT22;58851;42.984;20.336;2022-08-21T10:48:16;615.00;2329.60
55331;DHT22;58851;42.984;20.336;2022-08-21T10:50:50;614.90;2278.40
55331;DHT22;58851;42.984;20.336;2022-08-21T10:56:15;614.80;2278.40
55331;DHT22;58851;42.984;20.336;2022-08-21T11:01:53;640.20;2124.80
55331;DHT22;58851;42.984;20.336;2022-08-21T11:07:04;665.60;2176.00
55331;DHT22;58851;42.984;20.336;2022-08-21T11:09:31;665.80;2048.00
55331;DHT22;58851;42.984;20.336;2022-08-21T11:12:17;665.90;2048.00
55331;DHT22;58851;42.984;20.336;2022-08-21T11:15:50;665.80;2048.00
55331;DHT22;58851;42.984;20.336;2022-08-21T11:19:08;665.60;2073.60
55331;DHT22;58851;42.984;20.336;2022-08-21T11:24:46;666.00;2124.80
55331;DHT22;58851;42.984;20.336;2022-08-21T11:35:15;666.20;2073.60
55331;DHT22;58851;42.984;20.336;2022-08-21T11:43:17;691.90;1971.20
55331;DHT22;58851;42.984;20.336;2022-08-21T11:45:53;691.60;1868.80
55331;DHT22;58851;42.984;20.336;2022-08-21T11:48:40;691.30;1868.80
55331;DHT22;58851;42.984;20.336;2022-08-21T11:51:20;691.40;1868.80
55331;DHT22;58851;42.984;20.336;2022-08-21T11:56:44;691.90;1817.60
55331;DHT22;58851;42.984;20.336;2022-08-21T11:59:19;691.50;1792.00
55331;DHT22;58851;42.984;20.336;2022-08-21T12:01:47;691.50;1843.20
55331;DHT22;58851;42.984;20.336;2022-08-21T12:06:43;691.20;1868.80
55331;DHT22;58851;42.984;20.336;2022-08-21T12:12:21;666.40;1868.80
55331;DHT22;58851;42.984;20.336;2022-08-21T12:14:50;666.40;1843.20
55331;DHT22;58851;42.984;20.336;2022-08-21T12:17:21;691.20;1868.80
55331;DHT22;58851;42.984;20.336;2022-08-21T12:19:58;691.20;1766.40
55331;DHT22;58851;42.984;20.336;2022-08-21T12:22:37;666.50;1894.40
55331;DHT22;58851;42.984;20.336;2022-08-21T12:25:07;666.30;1971.20
55331;DHT22;58851;42.984;20.336;2022-08-21T12:27:49;666.10;2073.60
55331;DHT22;58851;42.984;20.336;2022-08-21T12:30:37;665.80;2150.40
55331;DHT22;58851;42.984;20.336;2022-08-21T12:33:17;665.60;2073.60
55331;DHT22;58851;42.984;20.336;2022-08-21T12:35:44;640.70;2073.60
55331;DHT22;58851;42.984;20.336;2022-08-21T12:40:46;640.70;2073.60
55331;DHT22;58851;42.984;20.336;2022-08-21T12:43:29;640.40;2048.00
55331;DHT22;58851;42.984;20.336;2022-08-21T12:45:56;640.30;2048.00
55331;DHT22;58851;42.984;20.336;2022-08-21T12:48:58;640.70;2073.60
55331;DHT22;58851;42.984;20.336;2022-08-21T12:51:38;665.60;2022.40
55331;DHT22;58851;42.984;20.336;2022-08-21T12:54:08;640.00;2022.40
55331;DHT22;58851;42.984;20.336;2022-08-21T12:56:34;614.90;2124.80
55331;DHT22;58851;42.984;20.336;2022-08-21T12:59:04;614.80;2150.40
55331;DHT22;58851;42.984;20.336;2022-08-21T13:01:50;614.60;2201.60
55331;DHT22;58851;42.984;20.336;2022-08-21T13:04:21;614.90;2201.60
55331;DHT22;58851;42.984;20.336;2022-08-21T13:06:50;614.60;2201.60
55331;DHT22;58851;42.984;20.336;2022-08-21T13:09:20;614.80;2201.60
55331;DHT22;58851;42.984;20.336;2022-08-21T13:11:49;615.00;2150.40
55331;DHT22;58851;42.984;20.336;2022-08-21T13:14:34;615.10;2150.40
55331;DHT22;58851;42.984;20.336;2022-08-21T13:17:00;615.30;2278.40
55331;DHT22;58851;42.984;20.336;2022-08-21T13:19:28;640.00;2380.80
55331;DHT22;58851;42.984;20.336;2022-08-21T13:21:55;640.10;2380.80
55331;DHT22;58851;42.984;20.336;2022-08-21T13:24:23;640.00;2380.80
55331;DHT22;58851;42.984;20.336;2022-08-21T13:26:50;615.20;2406.40
55331;DHT22;58851;42.984;20.336;2022-08-21T13:29:19;615.20;2432.00
55331;DHT22;58851;42.984;20.336;2022-08-21T13:32:13;614.90;2406.40
55331;DHT22;58851;42.984;20.336;2022-08-21T13:34:39;614.70;2432.00
55331;DHT22;58851;42.984;20.336;2022-08-21T13:37:08;614.60;2432.00
55331;DHT22;58851;42.984;20.336;2022-08-21T13:39:37;614.50;2432.00
55331;DHT22;58851;42.984;20.336;2022-08-21T13:42:10;614.40;2432.00
55331;DHT22;58851;42.984;20.336;2022-08-21T13:44:41;614.60;2432.00
55331;DHT22;58851;42.984;20.336;2022-08-21T13:47:11;614.40;2432.00
55331;DHT22;58851;42.984;20.336;2022-08-21T13:49:49;589.60;2432.00
55331;DHT22;58851;42.984;20.336;2022-08-21T13:52:25;589.60;2432.00
55331;DHT22;58851;42.984;20.336;2022-08-21T13:54:57;589.60;2432.00
55331;DHT22;58851;42.984;20.336;2022-08-21T13:57:32;589.70;2432.00
55331;DHT22;58851;42.984;20.336;2022-08-21T14:02:49;614.40;2432.00
55331;DHT22;58851;42.984;20.336;2022-08-21T14:05:29;614.40;2432.00
55331;DHT22;58851;42.984;20.336;2022-08-21T14:08:11;614.50;2432.00
55331;DHT22;58851;42.984;20.336;2022-08-21T14:10:58;614.60;2432.00
55331;DHT22;58851;42.984;20.336;2022-08-21T14:13:33;614.80;2432.00
55331;DHT22;58851;42.984;20.336;2022-08-21T14:16:01;614.80;2432.00
55331;DHT22;58851;42.984;20.336;2022-08-21T14:18:28;614.60;2432.00
55331;DHT22;58851;42.984;20.336;2022-08-21T14:21:05;589.70;2432.00
55331;DHT22;58851;42.984;20.336;2022-08-21T14:23:32;589.70;2432.00
55331;DHT22;58851;42.984;20.336;2022-08-21T14:26:02;589.50;2432.00
55331;DHT22;58851;42.984;20.336;2022-08-21T14:28:32;589.40;2432.00
55331;DHT22;58851;42.984;20.336;2022-08-21T14:31:12;589.30;2432.00
55331;DHT22;58851;42.984;20.336;2022-08-21T14:33:38;589.20;2432.00
55331;DHT22;58851;42.984;20.336;2022-08-21T14:36:04;589.10;2432.00
55331;DHT22;58851;42.984;20.336;2022-08-21T14:38:30;589.10;2432.00
55331;DHT22;58851;42.984;20.336;2022-08-21T14:41:00;589.00;2432.00
55331;DHT22;58851;42.984;20.336;2022-08-21T14:43:29;589.00;2432.00
55331;DHT22;58851;42.984;20.336;2022-08-21T14:45:56;588.80;2432.00
55331;DHT22;58851;42.984;20.336;2022-08-21T14:48:22;588.90;2432.00
55331;DHT22;58851;42.984;20.336;2022-08-21T14:50:48;588.80;2432.00
55331;DHT22;58851;42.984;20.336;2022-08-21T14:53:14;564.10;2432.00
55331;DHT22;58851;42.984;20.336;2022-08-21T14:55:40;564.10;2432.00
55331;DHT22;58851;42.984;20.336;2022-08-21T14:58:25;564.10;2432.00
55331;DHT22;58851;42.984;20.336;2022-08-21T15:00:54;564.10;2432.00
55331;DHT22;58851;42.984;20.336;2022-08-21T15:03:21;564.10;2432.00
55331;DHT22;58851;42.984;20.336;2022-08-21T15:05:48;564.00;2432.00
55331;DHT22;58851;42.984;20.336;2022-08-21T15:08:14;564.00;2432.00
55331;DHT22;58851;42.984;20.336;2022-08-21T15:10:40;564.00;2432.00
55331;DHT22;58851;42.984;20.336;2022-08-21T15:13:07;563.90;2432.00
55331;DHT22;58851;42.984;20.336;2022-08-21T15:15:38;563.70;2432.00
55331;DHT22;58851;42.984;20.336;2022-08-21T15:18:05;563.70;2432.00
55331;DHT22;58851;42.984;20.336;2022-08-21T15:20:31;563.70;2432.00
55331;DHT22;58851;42.984;20.336;2022-08-21T15:22:57;563.70;2432.00
55331;DHT22;58851;42.984;20.336;2022-08-21T15:25:23;563.60;2432.00
55331;DHT22;58851;42.984;20.336;2022-08-21T15:27:49;563.60;2432.00
55331;DHT22;58851;42.984;20.336;2022-08-21T15:30:15;563.50;2432.00
55331;DHT22;58851;42.984;20.336;2022-08-21T15:32:40;563.60;2432.00
55331;DHT22;58851;42.984;20.336;2022-08-21T15:35:08;563.70;2432.00
55331;DHT22;58851;42.984;20.336;2022-08-21T15:37:34;563.70;2432.00
55331;DHT22;58851;42.984;20.336;2022-08-21T15:40:00;563.70;2432.00
55331;DHT22;58851;42.984;20.336;2022-08-21T15:42:26;563.70;2432.00
55331;DHT22;58851;42.984;20.336;2022-08-21T15:44:54;563.70;2432.00
55331;DHT22;58851;42.984;20.336;2022-08-21T15:47:29;563.50;2432.00
55331;DHT22;58851;42.984;20.336;2022-08-21T15:49:56;563.40;2432.00
55331;DHT22;58851;42.984;20.336;2022-08-21T15:52:22;563.40;2432.00
55331;DHT22;58851;42.984;20.336;2022-08-21T15:54:48;563.40;2432.00
55331;DHT22;58851;42.984;20.336;2022-08-21T15:57:17;563.50;2432.00
55331;DHT22;58851;42.984;20.336;2022-08-21T15:59:46;563.30;2432.00
55331;DHT22;58851;42.984;20.336;2022-08-21T16:02:15;563.40;2432.00
55331;DHT22;58851;42.984;20.336;2022-08-21T16:04:43;563.40;2432.00
55331;DHT22;58851;42.984;20.336;2022-08-21T16:07:09;563.50;2432.00
55331;DHT22;58851;42.984;20.336;2022-08-21T16:09:36;563.60;2432.00
55331;DHT22;58851;42.984;20.336;2022-08-21T16:12:04;563.50;2432.00
55331;DHT22;58851;42.984;20.336;2022-08-21T16:14:31;563.40;2432.00